Miriam Moran — WQZ6572 — position and weather

sailwx.info

Track history (hours):
 
Tides and Currents Weather Stations Pressure Air Temp Water Temp Dewpoint Dewpoint Depression Visibility Wind Speed Wind Dir Waves Ship Positions

Miriam Moran

Owner: MORAN TOWING CORPORATION, New Canaan, CT. More information available from US FCC via Universal Licensing System and Coast Guard Vessel Documentation Center.

Last reported at 2018-Jul-23 15:30 UTC. Time now 2018-Jul-23 15:27 UTC.
Position N 40°38' W 074°08'.

Length 31 m; draft 4.6 m.

Type: Tug. MMSI: 366939710.

Date/timePositionNaut miles runAvg speedWind from/ knotsBaromVisibWave heightAir tempDewpointWater temp
2018-Jul-23 15:30N 40°38' W 074°08'0 0.0
2018-Jul-23 15:00N 40°38' W 074°08'1 1.9
2018-Jul-23 14:20N 40°40' W 074°09'0 0.5
2018-Jul-23 13:45N 40°40' W 074°09'0 0.6
2018-Jul-23 13:30N 40°40' W 074°09'0 0.0
2018-Jul-23 13:00N 40°40' W 074°09'0 0.0
2018-Jul-23 12:29N 40°40' W 074°09'0 0.0
2018-Jul-23 12:00N 40°40' W 074°09'1 1.1
2018-Jul-23 10:52N 40°41' W 074°08'2 3.7
2018-Jul-23 10:18N 40°39' W 074°07'1 2.4
2018-Jul-23 09:53N 40°38' W 074°08'0 0.0
2018-Jul-23 06:25N 40°38' W 074°08'0 0.0
2018-Jul-23 05:54N 40°38' W 074°08'0 0.0
2018-Jul-23 05:21N 40°38' W 074°08'0 0.0
2018-Jul-23 04:49N 40°38' W 074°08'0 0.0
2018-Jul-23 04:28N 40°38' W 074°08'0 0.0
2018-Jul-23 04:00N 40°38' W 074°08'0 0.0
2018-Jul-23 03:23N 40°38' W 074°08'0 0.0
2018-Jul-23 02:56N 40°38' W 074°08'0 0.0
2018-Jul-23 02:29N 40°38' W 074°08'0 0.0
2018-Jul-23 00:14N 40°38' W 074°08'0 0.0
2018-Jul-22 18:50N 40°38' W 074°08'0 0.1
2018-Jul-22 18:26N 40°38' W 074°08'0 0.0
2018-Jul-22 18:00N 40°38' W 074°08'0 0.0
2018-Jul-22 17:27N 40°38' W 074°08'0 0.0
2018-Jul-22 16:56N 40°38' W 074°08'0 0.0
2018-Jul-22 16:29N 40°38' W 074°08'2 3.1
2018-Jul-22 16:00N 40°40' W 074°09'3 2.5
2018-Jul-22 14:59N 40°39' W 074°05'0 0.7
2018-Jul-22 14:29N 40°39' W 074°05'2 3.6
2018-Jul-22 13:52N 40°38' W 074°08'0 0.0
2018-Jul-22 12:50N 40°38' W 074°08'0 0.0
2018-Jul-22 12:30N 40°38' W 074°08'0 0.0
2018-Jul-22 11:49N 40°38' W 074°08'0 0.0
2018-Jul-22 11:25N 40°38' W 074°08'0 0.0
2018-Jul-22 11:00N 40°38' W 074°08'0 0.0
2018-Jul-22 10:30N 40°38' W 074°08'0 0.0
2018-Jul-22 09:58N 40°38' W 074°08'0 0.0
2018-Jul-22 09:30N 40°38' W 074°08'0 0.0
2018-Jul-22 09:00N 40°38' W 074°08'0 0.0
2018-Jul-22 08:30N 40°38' W 074°08'0 0.0
2018-Jul-22 08:00N 40°38' W 074°08'0 0.0
2018-Jul-22 07:30N 40°38' W 074°08'0 0.0
2018-Jul-22 07:00N 40°38' W 074°08'0 0.0
2018-Jul-22 06:30N 40°38' W 074°08'0 0.0
2018-Jul-22 06:00N 40°38' W 074°08'0 0.0
2018-Jul-22 05:30N 40°38' W 074°08'0 0.0
2018-Jul-22 05:00N 40°38' W 074°08'0 0.0
2018-Jul-22 04:30N 40°38' W 074°08'0 0.0
2018-Jul-22 04:00N 40°38' W 074°08'0 0.0
2018-Jul-22 03:30N 40°38' W 074°08'0 0.0
2018-Jul-22 03:00N 40°38' W 074°08'0 0.0
2018-Jul-22 02:30N 40°38' W 074°08'0 0.0
2018-Jul-22 01:59N 40°38' W 074°08'0 0.0
2018-Jul-22 01:30N 40°38' W 074°08'0 0.0
2018-Jul-22 01:00N 40°38' W 074°08'0 0.0
2018-Jul-22 00:30N 40°38' W 074°08'0 0.0
2018-Jul-22 00:00N 40°38' W 074°08'0 0.0
2018-Jul-21 23:30N 40°38' W 074°08'0 0.0
2018-Jul-21 23:00N 40°38' W 074°08'0 0.0
2018-Jul-21 22:30N 40°38' W 074°08'0 0.0
2018-Jul-21 22:00N 40°38' W 074°08'0 0.0
2018-Jul-21 21:30N 40°38' W 074°08'0 0.0
2018-Jul-21 20:59N 40°38' W 074°08'0 0.0
2018-Jul-21 20:30N 40°38' W 074°08'0 0.0
2018-Jul-21 20:00N 40°38' W 074°08'0 0.0
2018-Jul-21 19:29N 40°38' W 074°08'0 0.7
2018-Jul-21 18:59N 40°39' W 074°08'3 5.3
2018-Jul-21 18:30N 40°41' W 074°08'1 1.4
2018-Jul-21 17:50N 40°42' W 074°09'1 1.6
2018-Jul-21 17:25N 40°41' W 074°08'3 6.3
2018-Jul-21 16:57N 40°39' W 074°06'410.1
2018-Jul-21 16:30N 40°42' W 074°01'4 8.5
2018-Jul-21 16:00N 40°45' W 073°58'0 0.3
2018-Jul-21 14:27N 40°45' W 073°57'8 8.6
2018-Jul-21 13:30N 40°39' W 074°04'3 6.0
2018-Jul-21 13:01N 40°38' W 074°08'0 0.0
2018-Jul-21 12:30N 40°38' W 074°08'0 0.0
2018-Jul-21 11:59N 40°38' W 074°08'0 0.0
2018-Jul-21 11:30N 40°38' W 074°08'2 5.1
2018-Jul-21 11:01N 40°41' W 074°09'1 1.0
2018-Jul-21 10:30N 40°41' W 074°09'1 1.1
2018-Jul-21 09:59N 40°41' W 074°09'2 4.6
2018-Jul-21 09:30N 40°39' W 074°09'1 0.8
2018-Jul-21 08:45N 40°38' W 074°08'0 0.0
2018-Jul-21 08:17N 40°38' W 074°08'0 0.0
2018-Jul-20 20:16N 40°38' W 074°08'0 0.0
2018-Jul-20 19:55N 40°38' W 074°08'0 0.0
2018-Jul-20 19:28N 40°38' W 074°08'0 0.0
2018-Jul-20 18:56N 40°38' W 074°08'0 0.0
2018-Jul-20 18:31N 40°38' W 074°08'0 0.0
2018-Jul-20 17:59N 40°38' W 074°08'0 0.0
2018-Jul-20 17:30N 40°38' W 074°08'0 0.0
2018-Jul-20 16:59N 40°38' W 074°08'0 0.0
2018-Jul-20 16:30N 40°38' W 074°08'0 0.0
2018-Jul-20 16:00N 40°38' W 074°08'0 0.0
2018-Jul-20 15:30N 40°38' W 074°08'0 0.0
2018-Jul-20 14:59N 40°38' W 074°08'0 0.0
2018-Jul-20 14:28N 40°38' W 074°08'0 0.0
2018-Jul-20 13:55N 40°38' W 074°08'0 0.0
2018-Jul-20 13:30N 40°38' W 074°08'0 0.0
2018-Jul-20 12:59N 40°38' W 074°08'0 0.0
2018-Jul-20 12:30N 40°38' W 074°08'0 0.0
2018-Jul-20 11:57N 40°38' W 074°08'2 3.5
2018-Jul-20 11:31N 40°40' W 074°09'0 0.6
2018-Jul-20 11:01N 40°39' W 074°09'1 2.3
2018-Jul-20 10:28N 40°39' W 074°08'3 6.0
2018-Jul-20 10:00N 40°39' W 074°04'2 3.5
2018-Jul-20 09:30N 40°37' W 074°03'3 6.6
2018-Jul-20 09:00N 40°40' W 074°05'0 0.8
2018-Jul-20 08:30N 40°40' W 074°04'3 5.4
2018-Jul-20 08:00N 40°37' W 074°03'1 1.8
2018-Jul-20 07:30N 40°38' W 074°04'0 0.0
2018-Jul-20 07:00N 40°38' W 074°04'0 0.0
2018-Jul-20 06:31N 40°38' W 074°04'0 0.0
2018-Jul-20 06:00N 40°38' W 074°04'0 0.0
2018-Jul-20 05:30N 40°38' W 074°04'0 0.0
2018-Jul-20 05:00N 40°38' W 074°04'2 4.1
2018-Jul-20 04:30N 40°40' W 074°04'1 1.3
2018-Jul-20 04:01N 40°40' W 074°05'2 3.5
2018-Jul-20 03:30N 40°39' W 074°06'1 2.4
2018-Jul-20 02:58N 40°38' W 074°08'0 0.0
2018-Jul-20 02:26N 40°38' W 074°08'0 0.0
2018-Jul-20 01:55N 40°38' W 074°08'0 0.0
2018-Jul-20 01:30N 40°38' W 074°08'0 0.0
2018-Jul-20 00:55N 40°38' W 074°08'0 0.3
2018-Jul-20 00:30N 40°39' W 074°08'2 4.6
2018-Jul-20 00:00N 40°41' W 074°09'1 1.1
2018-Jul-19 23:30N 40°41' W 074°09'0 0.1
2018-Jul-19 23:00N 40°41' W 074°09'0 0.0
2018-Jul-19 22:30N 40°41' W 074°09'0 0.0
2018-Jul-19 22:00N 40°41' W 074°09'2 3.4
2018-Jul-19 21:30N 40°39' W 074°09'0 0.6
2018-Jul-19 21:00N 40°40' W 074°09'1 2.3
2018-Jul-19 20:30N 40°39' W 074°09'1 0.2
2018-Jul-19 16:41N 40°38' W 074°08'1 5.2
2018-Jul-19 16:30N 40°39' W 074°09'3 4.6
2018-Jul-19 15:56N 40°41' W 074°09'1 2.1
2018-Jul-19 15:30N 40°41' W 074°08'2 3.4
2018-Jul-19 14:54N 40°39' W 074°07'3 7.1
2018-Jul-19 14:31N 40°39' W 074°03'3 3.2
2018-Jul-19 13:29N 40°38' W 074°08'0 0.0
2018-Jul-19 13:00N 40°38' W 074°08'3 5.1
2018-Jul-19 12:30N 40°39' W 074°04'1 1.2
2018-Jul-19 12:00N 40°39' W 074°05'0 0.0
2018-Jul-19 11:30N 40°39' W 074°05'1 1.5
2018-Jul-19 11:00N 40°39' W 074°04'611.4
2018-Jul-19 10:30N 40°44' W 074°01'2 4.2
2018-Jul-19 10:00N 40°46' W 074°00'1 1.1
2018-Jul-19 09:30N 40°46' W 074°01'1 0.3
2018-Jul-19 07:33N 40°46' W 074°00'0 7.8
2018-Jul-19 07:30N 40°46' W 074°01'611.3
2018-Jul-19 07:00N 40°40' W 074°01'1 1.1
2018-Jul-19 06:31N 40°40' W 074°01'0 0.5
2018-Jul-19 06:00N 40°40' W 074°01'2 3.6
2018-Jul-19 05:30N 40°42' W 074°00'0 0.7
2018-Jul-19 05:00N 40°41' W 074°01'3 6.9
2018-Jul-19 04:30N 40°39' W 074°04'3 2.9
2018-Jul-19 03:35N 40°38' W 074°08'0 0.1
2018-Jul-19 03:22N 40°38' W 074°08'0 0.0
2018-Jul-19 02:49N 40°38' W 074°08'0 0.0
2018-Jul-19 02:28N 40°38' W 074°08'0 0.0
2018-Jul-19 01:58N 40°38' W 074°08'0 0.0
2018-Jul-19 01:30N 40°38' W 074°08'0 0.0
2018-Jul-19 01:00N 40°38' W 074°08'0 0.0
2018-Jul-18 23:50N 40°38' W 074°08'0 0.2
2018-Jul-18 23:28N 40°39' W 074°08'3 5.4
2018-Jul-18 23:00N 40°39' W 074°05'1 1.8
2018-Jul-18 22:30N 40°40' W 074°04'1 1.7
2018-Jul-18 21:59N 40°40' W 074°05'1 1.9
2018-Jul-18 21:30N 40°40' W 074°04'0 0.0
2018-Jul-18 21:00N 40°40' W 074°04'0 0.0
2018-Jul-18 20:30N 40°40' W 074°04'3 6.0
2018-Jul-18 20:00N 40°39' W 074°08'2 1.7
2018-Jul-18 18:50N 40°41' W 074°08'2 5.7
2018-Jul-18 18:28N 40°38' W 074°09'3 6.1
2018-Jul-18 18:00N 40°39' W 074°05'1 2.5
2018-Jul-18 17:30N 40°38' W 074°04'3 6.0
2018-Jul-18 16:59N 40°38' W 074°08'0 0.0
2018-Jul-18 16:30N 40°38' W 074°08'0 0.0
2018-Jul-18 16:00N 40°38' W 074°08'0 0.2
2018-Jul-18 15:30N 40°39' W 074°08'3 5.7
2018-Jul-18 15:00N 40°40' W 074°05'3 5.7
2018-Jul-18 14:30N 40°37' W 074°03'4 3.8
2018-Jul-18 13:30N 40°38' W 074°08'0 0.0
2018-Jul-18 13:00N 40°38' W 074°08'0 0.0
2018-Jul-18 12:30N 40°38' W 074°08'0 0.0
2018-Jul-18 12:00N 40°38' W 074°08'2 4.5
2018-Jul-18 11:30N 40°41' W 074°09'0 0.4
2018-Jul-18 10:31N 40°41' W 074°09'2 4.0
2018-Jul-18 09:54N 40°38' W 074°09'3 6.7
2018-Jul-18 09:30N 40°39' W 074°05'3 5.8
2018-Jul-18 09:00N 40°37' W 074°03'1 2.8
2018-Jul-18 08:30N 40°38' W 074°04'0 0.0
2018-Jul-18 08:01N 40°38' W 074°04'0 0.0
2018-Jul-18 07:30N 40°38' W 074°04'0 0.0
2018-Jul-18 07:00N 40°38' W 074°04'0 0.4
2018-Jul-18 06:30N 40°38' W 074°04'3 4.3
2018-Jul-18 05:50N 40°38' W 074°08'3 8.2
2018-Jul-18 05:29N 40°38' W 074°12'0 0.1
2018-Jul-18 04:07N 40°39' W 074°11'210.2
2018-Jul-18 03:55N 40°39' W 074°09'1 1.8
2018-Jul-18 03:29N 40°38' W 074°08'0 0.0
2018-Jul-18 03:00N 40°38' W 074°08'0 0.0
2018-Jul-17 23:33N 40°38' W 074°08'0 3.6
2018-Jul-17 23:30N 40°39' W 074°08'2 3.3
2018-Jul-17 23:00N 40°40' W 074°08'1 2.6
2018-Jul-17 22:30N 40°39' W 074°09'1 0.3
2018-Jul-17 19:29N 40°38' W 074°08'3 6.3
2018-Jul-17 18:59N 40°38' W 074°12'2 0.7
2018-Jul-17 15:37N 40°39' W 074°09'1 0.4
2018-Jul-17 13:46N 40°38' W 074°08'0 0.0
2018-Jul-17 12:05N 40°38' W 074°08'0 0.1
2018-Jul-17 12:00N 40°38' W 074°08'0 0.0
2018-Jul-17 11:29N 40°38' W 074°08'0 0.0
2018-Jul-17 10:47N 40°38' W 074°08'0 0.0
2018-Jul-17 10:28N 40°38' W 074°08'2 3.6
2018-Jul-17 10:00N 40°40' W 074°08'1 2.2
2018-Jul-17 09:30N 40°41' W 074°09'0 0.4
2018-Jul-17 09:00N 40°41' W 074°09'3 5.3
2018-Jul-17 08:30N 40°38' W 074°08'0 0.1
2018-Jul-17 08:00N 40°38' W 074°08'0 0.0
2018-Jul-17 07:29N 40°38' W 074°08'0 0.0
2018-Jul-17 06:48N 40°38' W 074°08'0 0.0
2018-Jul-17 06:30N 40°38' W 074°08'0 0.0
2018-Jul-17 06:00N 40°38' W 074°08'3 6.4
2018-Jul-17 05:30N 40°38' W 074°12'0 0.0
2018-Jul-17 03:38N 40°38' W 074°12'1 5.9
2018-Jul-17 03:30N 40°39' W 074°11'3 6.7
2018-Jul-17 03:00N 40°39' W 074°07'3 6.1
2018-Jul-17 02:30N 40°38' W 074°03'2 4.6
2018-Jul-17 02:00N 40°39' W 074°06'2 3.4
2018-Jul-17 01:30N 40°38' W 074°08'0 0.0
2018-Jul-17 01:00N 40°38' W 074°08'0 0.0
2018-Jul-17 00:30N 40°38' W 074°08'3 2.7
2018-Jul-16 23:30N 40°41' W 074°08'0 0.7
2018-Jul-16 22:59N 40°41' W 074°08'1 2.4
2018-Jul-16 22:30N 40°40' W 074°08'2 3.5
2018-Jul-16 21:58N 40°38' W 074°08'0 0.0
2018-Jul-16 21:30N 40°38' W 074°08'0 0.0
2018-Jul-16 20:28N 40°38' W 074°08'2 5.3
2018-Jul-16 20:00N 40°39' W 074°11'1 0.2
2018-Jul-16 16:41N 40°38' W 074°12'2 8.7
2018-Jul-16 16:28N 40°39' W 074°09'1 1.2
2018-Jul-16 15:36N 40°38' W 074°08'0 0.0
2018-Jul-16 15:29N 40°38' W 074°08'0 0.0
2018-Jul-16 14:44N 40°38' W 074°08'0 0.0
2018-Jul-16 14:29N 40°38' W 074°08'0 0.0
2018-Jul-16 13:52N 40°38' W 074°08'0 0.0
2018-Jul-16 13:27N 40°38' W 074°08'0 0.0
2018-Jul-16 12:33N 40°38' W 074°08'0 0.0
2018-Jul-16 12:20N 40°38' W 074°08'0 0.0
2018-Jul-16 11:55N 40°38' W 074°08'0 0.9
2018-Jul-16 11:30N 40°39' W 074°08'2 3.8
2018-Jul-16 10:59N 40°41' W 074°08'0 0.5
2018-Jul-16 10:31N 40°40' W 074°08'2 3.5
2018-Jul-16 09:57N 40°39' W 074°09'2 5.0
2018-Jul-16 09:27N 40°39' W 074°05'3 5.3
2018-Jul-16 08:55N 40°37' W 074°03'1 3.6
2018-Jul-16 08:31N 40°36' W 074°02'4 7.8
2018-Jul-16 08:00N 40°39' W 074°04'3 0.7
2018-Jul-16 04:25N 40°38' W 074°08'0 0.0
2018-Jul-16 03:20N 40°38' W 074°08'0 0.0
2018-Jul-16 02:58N 40°38' W 074°08'3 7.4
2018-Jul-16 02:30N 40°42' W 074°09'0 0.0
2018-Jul-16 02:00N 40°42' W 074°09'1 2.0
2018-Jul-16 01:22N 40°41' W 074°08'2 6.3
2018-Jul-16 01:00N 40°39' W 074°09'4 7.2
2018-Jul-16 00:30N 40°39' W 074°04'3 5.7
2018-Jul-16 00:00N 40°38' W 074°08'0 0.0
2018-Jul-15 23:30N 40°38' W 074°08'1 2.9
2018-Jul-15 23:01N 40°39' W 074°06'0 0.0
2018-Jul-15 22:30N 40°39' W 074°06'1 2.5
2018-Jul-15 22:00N 40°39' W 074°04'2 3.0
2018-Jul-15 21:30N 40°38' W 074°03'3 5.3
2018-Jul-15 20:53N 40°39' W 074°08'0 0.0
2018-Jul-15 13:09N 40°38' W 074°08'0 0.0
2018-Jul-15 12:59N 40°38' W 074°08'0 0.0
2018-Jul-15 12:26N 40°38' W 074°08'0 0.0
2018-Jul-15 11:55N 40°38' W 074°08'2 3.2
2018-Jul-15 11:25N 40°39' W 074°06'2 4.3
2018-Jul-15 11:00N 40°40' W 074°04'1 2.4
2018-Jul-15 10:30N 40°40' W 074°05'0 0.0
2018-Jul-15 10:00N 40°40' W 074°05'2 3.3
2018-Jul-15 09:30N 40°39' W 074°06'1 0.1
2018-Jul-14 23:57N 40°38' W 074°08'0 0.0
2018-Jul-14 16:37N 40°38' W 074°08'1 6.5
2018-Jul-14 16:30N 40°39' W 074°07'1 1.4
2018-Jul-14 16:00N 40°39' W 074°06'1 1.2
2018-Jul-14 15:28N 40°39' W 074°07'4 7.8
2018-Jul-14 15:00N 40°38' W 074°12'2 0.9
2018-Jul-14 12:38N 40°36' W 074°12'2 9.9
2018-Jul-14 12:25N 40°38' W 074°12'3 7.3
2018-Jul-14 12:00N 40°38' W 074°08'0 0.0
2018-Jul-14 11:22N 40°38' W 074°08'0 0.0
2018-Jul-14 10:50N 40°38' W 074°08'0 0.0
2018-Jul-14 10:27N 40°38' W 074°08'1 1.5
2018-Jul-14 10:00N 40°39' W 074°09'2 4.7
2018-Jul-14 09:30N 40°41' W 074°09'0 0.1
2018-Jul-14 09:00N 40°41' W 074°09'3 5.1
2018-Jul-14 08:30N 40°39' W 074°08'3 5.4
2018-Jul-14 08:00N 40°39' W 074°04'2 3.3
2018-Jul-14 07:31N 40°37' W 074°04'1 1.3
2018-Jul-14 07:00N 40°38' W 074°04'0 0.0
2018-Jul-14 06:30N 40°38' W 074°04'0 0.0
2018-Jul-14 06:00N 40°38' W 074°04'0 0.0
2018-Jul-14 05:30N 40°38' W 074°04'0 0.0
2018-Jul-14 05:00N 40°38' W 074°04'0 0.0
2018-Jul-14 04:30N 40°38' W 074°04'3 5.2
2018-Jul-14 04:00N 40°40' W 074°02'5 9.2
2018-Jul-14 03:30N 40°44' W 074°01'2 3.0
2018-Jul-14 02:55N 40°46' W 074°00'0 0.0
2018-Jul-14 02:30N 40°46' W 074°00'4 7.2
2018-Jul-14 02:00N 40°43' W 074°02'5 9.4
2018-Jul-14 01:30N 40°39' W 074°05'2 3.7
2018-Jul-14 01:00N 40°38' W 074°08'0 0.0
2018-Jul-14 00:30N 40°38' W 074°08'0 0.0
2018-Jul-13 22:45N 40°38' W 074°08'0 0.0
2018-Jul-13 22:29N 40°38' W 074°08'0 0.0
2018-Jul-13 21:59N 40°38' W 074°08'0 0.0
2018-Jul-13 21:27N 40°38' W 074°08'3 7.4
2018-Jul-13 21:00N 40°40' W 074°04'2 4.1
2018-Jul-13 20:30N 40°38' W 074°04'3 6.5
2018-Jul-13 20:00N 40°39' W 074°08'0 0.1
2018-Jul-13 18:55N 40°38' W 074°08'0 0.0
2018-Jul-13 17:58N 40°38' W 074°08'0 0.0
2018-Jul-13 17:26N 40°38' W 074°08'0 0.0
2018-Jul-13 16:57N 40°38' W 074°08'0 0.0
2018-Jul-13 16:30N 40°38' W 074°08'0 0.0
2018-Jul-13 15:42N 40°38' W 074°08'  
Track history (hours):
 
Tides and Currents Weather Stations Pressure Air Temp Water Temp Dewpoint Dewpoint Depression Visibility Wind Speed Wind Dir Waves Ship Positions

Miriam Moran

Owner: MORAN TOWING CORPORATION, New Canaan, CT. More information available from US FCC via Universal Licensing System and Coast Guard Vessel Documentation Center.

Last reported at 2018-Jul-23 15:30 UTC. Time now 2018-Jul-23 15:27 UTC.
Position N 40°38' W 074°08'.

Length 31 m; draft 4.6 m.

Type: Tug. MMSI: 366939710.

Date/timePositionNaut miles runAvg speedWind from/ knotsBaromVisibWave heightAir tempDewpointWater temp
2018-Jul-23 15:30N 40°38' W 074°08'0 0.0
2018-Jul-23 15:00N 40°38' W 074°08'1 1.9
2018-Jul-23 14:20N 40°40' W 074°09'0 0.5
2018-Jul-23 13:45N 40°40' W 074°09'0 0.6
2018-Jul-23 13:30N 40°40' W 074°09'0 0.0
2018-Jul-23 13:00N 40°40' W 074°09'0 0.0
2018-Jul-23 12:29N 40°40' W 074°09'0 0.0
2018-Jul-23 12:00N 40°40' W 074°09'1 1.1
2018-Jul-23 10:52N 40°41' W 074°08'2 3.7
2018-Jul-23 10:18N 40°39' W 074°07'1 2.4
2018-Jul-23 09:53N 40°38' W 074°08'0 0.0
2018-Jul-23 06:25N 40°38' W 074°08'0 0.0
2018-Jul-23 05:54N 40°38' W 074°08'0 0.0
2018-Jul-23 05:21N 40°38' W 074°08'0 0.0
2018-Jul-23 04:49N 40°38' W 074°08'0 0.0
2018-Jul-23 04:28N 40°38' W 074°08'0 0.0
2018-Jul-23 04:00N 40°38' W 074°08'0 0.0
2018-Jul-23 03:23N 40°38' W 074°08'0 0.0
2018-Jul-23 02:56N 40°38' W 074°08'0 0.0
2018-Jul-23 02:29N 40°38' W 074°08'0 0.0
2018-Jul-23 00:14N 40°38' W 074°08'0 0.0
2018-Jul-22 18:50N 40°38' W 074°08'0 0.1
2018-Jul-22 18:26N 40°38' W 074°08'0 0.0
2018-Jul-22 18:00N 40°38' W 074°08'0 0.0
2018-Jul-22 17:27N 40°38' W 074°08'0 0.0
2018-Jul-22 16:56N 40°38' W 074°08'0 0.0
2018-Jul-22 16:29N 40°38' W 074°08'2 3.1
2018-Jul-22 16:00N 40°40' W 074°09'3 2.5
2018-Jul-22 14:59N 40°39' W 074°05'0 0.7
2018-Jul-22 14:29N 40°39' W 074°05'2 3.6
2018-Jul-22 13:52N 40°38' W 074°08'0 0.0
2018-Jul-22 12:50N 40°38' W 074°08'0 0.0
2018-Jul-22 12:30N 40°38' W 074°08'0 0.0
2018-Jul-22 11:49N 40°38' W 074°08'0 0.0
2018-Jul-22 11:25N 40°38' W 074°08'0 0.0
2018-Jul-22 11:00N 40°38' W 074°08'0 0.0
2018-Jul-22 10:30N 40°38' W 074°08'0 0.0
2018-Jul-22 09:58N 40°38' W 074°08'0 0.0
2018-Jul-22 09:30N 40°38' W 074°08'0 0.0
2018-Jul-22 09:00N 40°38' W 074°08'0 0.0
2018-Jul-22 08:30N 40°38' W 074°08'0 0.0
2018-Jul-22 08:00N 40°38' W 074°08'0 0.0
2018-Jul-22 07:30N 40°38' W 074°08'0 0.0
2018-Jul-22 07:00N 40°38' W 074°08'0 0.0
2018-Jul-22 06:30N 40°38' W 074°08'0 0.0
2018-Jul-22 06:00N 40°38' W 074°08'0 0.0
2018-Jul-22 05:30N 40°38' W 074°08'0 0.0
2018-Jul-22 05:00N 40°38' W 074°08'0 0.0
2018-Jul-22 04:30N 40°38' W 074°08'0 0.0
2018-Jul-22 04:00N 40°38' W 074°08'0 0.0
2018-Jul-22 03:30N 40°38' W 074°08'0 0.0
2018-Jul-22 03:00N 40°38' W 074°08'0 0.0
2018-Jul-22 02:30N 40°38' W 074°08'0 0.0
2018-Jul-22 01:59N 40°38' W 074°08'0 0.0
2018-Jul-22 01:30N 40°38' W 074°08'0 0.0
2018-Jul-22 01:00N 40°38' W 074°08'0 0.0
2018-Jul-22 00:30N 40°38' W 074°08'0 0.0
2018-Jul-22 00:00N 40°38' W 074°08'0 0.0
2018-Jul-21 23:30N 40°38' W 074°08'0 0.0
2018-Jul-21 23:00N 40°38' W 074°08'0 0.0
2018-Jul-21 22:30N 40°38' W 074°08'0 0.0
2018-Jul-21 22:00N 40°38' W 074°08'0 0.0
2018-Jul-21 21:30N 40°38' W 074°08'0 0.0
2018-Jul-21 20:59N 40°38' W 074°08'0 0.0
2018-Jul-21 20:30N 40°38' W 074°08'0 0.0
2018-Jul-21 20:00N 40°38' W 074°08'0 0.0
2018-Jul-21 19:29N 40°38' W 074°08'0 0.7
2018-Jul-21 18:59N 40°39' W 074°08'3 5.3
2018-Jul-21 18:30N 40°41' W 074°08'1 1.4
2018-Jul-21 17:50N 40°42' W 074°09'1 1.6
2018-Jul-21 17:25N 40°41' W 074°08'3 6.3
2018-Jul-21 16:57N 40°39' W 074°06'410.1
2018-Jul-21 16:30N 40°42' W 074°01'4 8.5
2018-Jul-21 16:00N 40°45' W 073°58'0 0.3
2018-Jul-21 14:27N 40°45' W 073°57'8 8.6
2018-Jul-21 13:30N 40°39' W 074°04'3 6.0
2018-Jul-21 13:01N 40°38' W 074°08'0 0.0
2018-Jul-21 12:30N 40°38' W 074°08'0 0.0
2018-Jul-21 11:59N 40°38' W 074°08'0 0.0
2018-Jul-21 11:30N 40°38' W 074°08'2 5.1
2018-Jul-21 11:01N 40°41' W 074°09'1 1.0
2018-Jul-21 10:30N 40°41' W 074°09'1 1.1
2018-Jul-21 09:59N 40°41' W 074°09'2 4.6
2018-Jul-21 09:30N 40°39' W 074°09'1 0.8
2018-Jul-21 08:45N 40°38' W 074°08'0 0.0
2018-Jul-21 08:17N 40°38' W 074°08'0 0.0
2018-Jul-20 20:16N 40°38' W 074°08'0 0.0
2018-Jul-20 19:55N 40°38' W 074°08'0 0.0
2018-Jul-20 19:28N 40°38' W 074°08'0 0.0
2018-Jul-20 18:56N 40°38' W 074°08'0 0.0
2018-Jul-20 18:31N 40°38' W 074°08'0 0.0
2018-Jul-20 17:59N 40°38' W 074°08'0 0.0
2018-Jul-20 17:30N 40°38' W 074°08'0 0.0
2018-Jul-20 16:59N 40°38' W 074°08'0 0.0
2018-Jul-20 16:30N 40°38' W 074°08'0 0.0
2018-Jul-20 16:00N 40°38' W 074°08'0 0.0
2018-Jul-20 15:30N 40°38' W 074°08'0 0.0
2018-Jul-20 14:59N 40°38' W 074°08'0 0.0
2018-Jul-20 14:28N 40°38' W 074°08'0 0.0
2018-Jul-20 13:55N 40°38' W 074°08'0 0.0
2018-Jul-20 13:30N 40°38' W 074°08'0 0.0
2018-Jul-20 12:59N 40°38' W 074°08'0 0.0
2018-Jul-20 12:30N 40°38' W 074°08'0 0.0
2018-Jul-20 11:57N 40°38' W 074°08'2 3.5
2018-Jul-20 11:31N 40°40' W 074°09'0 0.6
2018-Jul-20 11:01N 40°39' W 074°09'1 2.3
2018-Jul-20 10:28N 40°39' W 074°08'3 6.0
2018-Jul-20 10:00N 40°39' W 074°04'2 3.5
2018-Jul-20 09:30N 40°37' W 074°03'3 6.6
2018-Jul-20 09:00N 40°40' W 074°05'0 0.8
2018-Jul-20 08:30N 40°40' W 074°04'3 5.4
2018-Jul-20 08:00N 40°37' W 074°03'1 1.8
2018-Jul-20 07:30N 40°38' W 074°04'0 0.0
2018-Jul-20 07:00N 40°38' W 074°04'0 0.0
2018-Jul-20 06:31N 40°38' W 074°04'0 0.0
2018-Jul-20 06:00N 40°38' W 074°04'0 0.0
2018-Jul-20 05:30N 40°38' W 074°04'0 0.0
2018-Jul-20 05:00N 40°38' W 074°04'2 4.1
2018-Jul-20 04:30N 40°40' W 074°04'1 1.3
2018-Jul-20 04:01N 40°40' W 074°05'2 3.5
2018-Jul-20 03:30N 40°39' W 074°06'1 2.4
2018-Jul-20 02:58N 40°38' W 074°08'0 0.0
2018-Jul-20 02:26N 40°38' W 074°08'0 0.0
2018-Jul-20 01:55N 40°38' W 074°08'0 0.0
2018-Jul-20 01:30N 40°38' W 074°08'0 0.0
2018-Jul-20 00:55N 40°38' W 074°08'0 0.3
2018-Jul-20 00:30N 40°39' W 074°08'2 4.6
2018-Jul-20 00:00N 40°41' W 074°09'1 1.1
2018-Jul-19 23:30N 40°41' W 074°09'0 0.1
2018-Jul-19 23:00N 40°41' W 074°09'0 0.0
2018-Jul-19 22:30N 40°41' W 074°09'0 0.0
2018-Jul-19 22:00N 40°41' W 074°09'2 3.4
2018-Jul-19 21:30N 40°39' W 074°09'0 0.6
2018-Jul-19 21:00N 40°40' W 074°09'1 2.3
2018-Jul-19 20:30N 40°39' W 074°09'1 0.2
2018-Jul-19 16:41N 40°38' W 074°08'1 5.2
2018-Jul-19 16:30N 40°39' W 074°09'3 4.6
2018-Jul-19 15:56N 40°41' W 074°09'1 2.1
2018-Jul-19 15:30N 40°41' W 074°08'2 3.4
2018-Jul-19 14:54N 40°39' W 074°07'3 7.1
2018-Jul-19 14:31N 40°39' W 074°03'3 3.2
2018-Jul-19 13:29N 40°38' W 074°08'0 0.0
2018-Jul-19 13:00N 40°38' W 074°08'3 5.1
2018-Jul-19 12:30N 40°39' W 074°04'1 1.2
2018-Jul-19 12:00N 40°39' W 074°05'0 0.0
2018-Jul-19 11:30N 40°39' W 074°05'1 1.5
2018-Jul-19 11:00N 40°39' W 074°04'611.4
2018-Jul-19 10:30N 40°44' W 074°01'2 4.2
2018-Jul-19 10:00N 40°46' W 074°00'1 1.1
2018-Jul-19 09:30N 40°46' W 074°01'1 0.3
2018-Jul-19 07:33N 40°46' W 074°00'0 7.8
2018-Jul-19 07:30N 40°46' W 074°01'611.3
2018-Jul-19 07:00N 40°40' W 074°01'1 1.1
2018-Jul-19 06:31N 40°40' W 074°01'0 0.5
2018-Jul-19 06:00N 40°40' W 074°01'2 3.6
2018-Jul-19 05:30N 40°42' W 074°00'0 0.7
2018-Jul-19 05:00N 40°41' W 074°01'3 6.9
2018-Jul-19 04:30N 40°39' W 074°04'3 2.9
2018-Jul-19 03:35N 40°38' W 074°08'0 0.1
2018-Jul-19 03:22N 40°38' W 074°08'0 0.0
2018-Jul-19 02:49N 40°38' W 074°08'0 0.0
2018-Jul-19 02:28N 40°38' W 074°08'0 0.0
2018-Jul-19 01:58N 40°38' W 074°08'0 0.0
2018-Jul-19 01:30N 40°38' W 074°08'0 0.0
2018-Jul-19 01:00N 40°38' W 074°08'0 0.0
2018-Jul-18 23:50N 40°38' W 074°08'0 0.2
2018-Jul-18 23:28N 40°39' W 074°08'3 5.4
2018-Jul-18 23:00N 40°39' W 074°05'1 1.8
2018-Jul-18 22:30N 40°40' W 074°04'1 1.7
2018-Jul-18 21:59N 40°40' W 074°05'1 1.9
2018-Jul-18 21:30N 40°40' W 074°04'0 0.0
2018-Jul-18 21:00N 40°40' W 074°04'0 0.0
2018-Jul-18 20:30N 40°40' W 074°04'3 6.0
2018-Jul-18 20:00N 40°39' W 074°08'2 1.7
2018-Jul-18 18:50N 40°41' W 074°08'2 5.7
2018-Jul-18 18:28N 40°38' W 074°09'3 6.1
2018-Jul-18 18:00N 40°39' W 074°05'1 2.5
2018-Jul-18 17:30N 40°38' W 074°04'3 6.0
2018-Jul-18 16:59N 40°38' W 074°08'0 0.0
2018-Jul-18 16:30N 40°38' W 074°08'0 0.0
2018-Jul-18 16:00N 40°38' W 074°08'0 0.2
2018-Jul-18 15:30N 40°39' W 074°08'3 5.7
2018-Jul-18 15:00N 40°40' W 074°05'3 5.7
2018-Jul-18 14:30N 40°37' W 074°03'4 3.8
2018-Jul-18 13:30N 40°38' W 074°08'0 0.0
2018-Jul-18 13:00N 40°38' W 074°08'0 0.0
2018-Jul-18 12:30N 40°38' W 074°08'0 0.0
2018-Jul-18 12:00N 40°38' W 074°08'2 4.5
2018-Jul-18 11:30N 40°41' W 074°09'0 0.4
2018-Jul-18 10:31N 40°41' W 074°09'2 4.0
2018-Jul-18 09:54N 40°38' W 074°09'3 6.7
2018-Jul-18 09:30N 40°39' W 074°05'3 5.8
2018-Jul-18 09:00N 40°37' W 074°03'1 2.8
2018-Jul-18 08:30N 40°38' W 074°04'0 0.0
2018-Jul-18 08:01N 40°38' W 074°04'0 0.0
2018-Jul-18 07:30N 40°38' W 074°04'0 0.0
2018-Jul-18 07:00N 40°38' W 074°04'0 0.4
2018-Jul-18 06:30N 40°38' W 074°04'3 4.3
2018-Jul-18 05:50N 40°38' W 074°08'3 8.2
2018-Jul-18 05:29N 40°38' W 074°12'0 0.1
2018-Jul-18 04:07N 40°39' W 074°11'210.2
2018-Jul-18 03:55N 40°39' W 074°09'1 1.8
2018-Jul-18 03:29N 40°38' W 074°08'0 0.0
2018-Jul-18 03:00N 40°38' W 074°08'0 0.0
2018-Jul-17 23:33N 40°38' W 074°08'0 3.6
2018-Jul-17 23:30N 40°39' W 074°08'2 3.3
2018-Jul-17 23:00N 40°40' W 074°08'1 2.6
2018-Jul-17 22:30N 40°39' W 074°09'1 0.3
2018-Jul-17 19:29N 40°38' W 074°08'3 6.3
2018-Jul-17 18:59N 40°38' W 074°12'2 0.7
2018-Jul-17 15:37N 40°39' W 074°09'1 0.4
2018-Jul-17 13:46N 40°38' W 074°08'0 0.0
2018-Jul-17 12:05N 40°38' W 074°08'0 0.1
2018-Jul-17 12:00N 40°38' W 074°08'0 0.0
2018-Jul-17 11:29N 40°38' W 074°08'0 0.0
2018-Jul-17 10:47N 40°38' W 074°08'0 0.0
2018-Jul-17 10:28N 40°38' W 074°08'2 3.6
2018-Jul-17 10:00N 40°40' W 074°08'1 2.2
2018-Jul-17 09:30N 40°41' W 074°09'0 0.4
2018-Jul-17 09:00N 40°41' W 074°09'3 5.3
2018-Jul-17 08:30N 40°38' W 074°08'0 0.1
2018-Jul-17 08:00N 40°38' W 074°08'0 0.0
2018-Jul-17 07:29N 40°38' W 074°08'0 0.0
2018-Jul-17 06:48N 40°38' W 074°08'0 0.0
2018-Jul-17 06:30N 40°38' W 074°08'0 0.0
2018-Jul-17 06:00N 40°38' W 074°08'3 6.4
2018-Jul-17 05:30N 40°38' W 074°12'0 0.0
2018-Jul-17 03:38N 40°38' W 074°12'1 5.9
2018-Jul-17 03:30N 40°39' W 074°11'3 6.7
2018-Jul-17 03:00N 40°39' W 074°07'3 6.1
2018-Jul-17 02:30N 40°38' W 074°03'2 4.6
2018-Jul-17 02:00N 40°39' W 074°06'2 3.4
2018-Jul-17 01:30N 40°38' W 074°08'0 0.0
2018-Jul-17 01:00N 40°38' W 074°08'0 0.0
2018-Jul-17 00:30N 40°38' W 074°08'3 2.7
2018-Jul-16 23:30N 40°41' W 074°08'0 0.7
2018-Jul-16 22:59N 40°41' W 074°08'1 2.4
2018-Jul-16 22:30N 40°40' W 074°08'2 3.5
2018-Jul-16 21:58N 40°38' W 074°08'0 0.0
2018-Jul-16 21:30N 40°38' W 074°08'0 0.0
2018-Jul-16 20:28N 40°38' W 074°08'2 5.3
2018-Jul-16 20:00N 40°39' W 074°11'1 0.2
2018-Jul-16 16:41N 40°38' W 074°12'2 8.7
2018-Jul-16 16:28N 40°39' W 074°09'1 1.2
2018-Jul-16 15:36N 40°38' W 074°08'0 0.0
2018-Jul-16 15:29N 40°38' W 074°08'0 0.0
2018-Jul-16 14:44N 40°38' W 074°08'0 0.0
2018-Jul-16 14:29N 40°38' W 074°08'0 0.0
2018-Jul-16 13:52N 40°38' W 074°08'0 0.0
2018-Jul-16 13:27N 40°38' W 074°08'0 0.0
2018-Jul-16 12:33N 40°38' W 074°08'0 0.0
2018-Jul-16 12:20N 40°38' W 074°08'0 0.0
2018-Jul-16 11:55N 40°38' W 074°08'0 0.9
2018-Jul-16 11:30N 40°39' W 074°08'2 3.8
2018-Jul-16 10:59N 40°41' W 074°08'0 0.5
2018-Jul-16 10:31N 40°40' W 074°08'2 3.5
2018-Jul-16 09:57N 40°39' W 074°09'2 5.0
2018-Jul-16 09:27N 40°39' W 074°05'3 5.3
2018-Jul-16 08:55N 40°37' W 074°03'1 3.6
2018-Jul-16 08:31N 40°36' W 074°02'4 7.8
2018-Jul-16 08:00N 40°39' W 074°04'3 0.7
2018-Jul-16 04:25N 40°38' W 074°08'0 0.0
2018-Jul-16 03:20N 40°38' W 074°08'0 0.0
2018-Jul-16 02:58N 40°38' W 074°08'3 7.4
2018-Jul-16 02:30N 40°42' W 074°09'0 0.0
2018-Jul-16 02:00N 40°42' W 074°09'1 2.0
2018-Jul-16 01:22N 40°41' W 074°08'2 6.3
2018-Jul-16 01:00N 40°39' W 074°09'4 7.2
2018-Jul-16 00:30N 40°39' W 074°04'3 5.7
2018-Jul-16 00:00N 40°38' W 074°08'0 0.0
2018-Jul-15 23:30N 40°38' W 074°08'1 2.9
2018-Jul-15 23:01N 40°39' W 074°06'0 0.0
2018-Jul-15 22:30N 40°39' W 074°06'1 2.5
2018-Jul-15 22:00N 40°39' W 074°04'2 3.0
2018-Jul-15 21:30N 40°38' W 074°03'3 5.3
2018-Jul-15 20:53N 40°39' W 074°08'0 0.0
2018-Jul-15 13:09N 40°38' W 074°08'0 0.0
2018-Jul-15 12:59N 40°38' W 074°08'0 0.0
2018-Jul-15 12:26N 40°38' W 074°08'0 0.0
2018-Jul-15 11:55N 40°38' W 074°08'2 3.2
2018-Jul-15 11:25N 40°39' W 074°06'2 4.3
2018-Jul-15 11:00N 40°40' W 074°04'1 2.4
2018-Jul-15 10:30N 40°40' W 074°05'0 0.0
2018-Jul-15 10:00N 40°40' W 074°05'2 3.3
2018-Jul-15 09:30N 40°39' W 074°06'1 0.1
2018-Jul-14 23:57N 40°38' W 074°08'0 0.0
2018-Jul-14 16:37N 40°38' W 074°08'1 6.5
2018-Jul-14 16:30N 40°39' W 074°07'1 1.4
2018-Jul-14 16:00N 40°39' W 074°06'1 1.2
2018-Jul-14 15:28N 40°39' W 074°07'4 7.8
2018-Jul-14 15:00N 40°38' W 074°12'2 0.9
2018-Jul-14 12:38N 40°36' W 074°12'2 9.9
2018-Jul-14 12:25N 40°38' W 074°12'3 7.3
2018-Jul-14 12:00N 40°38' W 074°08'0 0.0
2018-Jul-14 11:22N 40°38' W 074°08'0 0.0
2018-Jul-14 10:50N 40°38' W 074°08'0 0.0
2018-Jul-14 10:27N 40°38' W 074°08'1 1.5
2018-Jul-14 10:00N 40°39' W 074°09'2 4.7
2018-Jul-14 09:30N 40°41' W 074°09'0 0.1
2018-Jul-14 09:00N 40°41' W 074°09'3 5.1
2018-Jul-14 08:30N 40°39' W 074°08'3 5.4
2018-Jul-14 08:00N 40°39' W 074°04'2 3.3
2018-Jul-14 07:31N 40°37' W 074°04'1 1.3
2018-Jul-14 07:00N 40°38' W 074°04'0 0.0
2018-Jul-14 06:30N 40°38' W 074°04'0 0.0
2018-Jul-14 06:00N 40°38' W 074°04'0 0.0
2018-Jul-14 05:30N 40°38' W 074°04'0 0.0
2018-Jul-14 05:00N 40°38' W 074°04'0 0.0
2018-Jul-14 04:30N 40°38' W 074°04'3 5.2
2018-Jul-14 04:00N 40°40' W 074°02'5 9.2
2018-Jul-14 03:30N 40°44' W 074°01'2 3.0
2018-Jul-14 02:55N 40°46' W 074°00'0 0.0
2018-Jul-14 02:30N 40°46' W 074°00'4 7.2
2018-Jul-14 02:00N 40°43' W 074°02'5 9.4
2018-Jul-14 01:30N 40°39' W 074°05'2 3.7
2018-Jul-14 01:00N 40°38' W 074°08'0 0.0
2018-Jul-14 00:30N 40°38' W 074°08'0 0.0
2018-Jul-13 22:45N 40°38' W 074°08'0 0.0
2018-Jul-13 22:29N 40°38' W 074°08'0 0.0
2018-Jul-13 21:59N 40°38' W 074°08'0 0.0
2018-Jul-13 21:27N 40°38' W 074°08'3 7.4
2018-Jul-13 21:00N 40°40' W 074°04'2 4.1
2018-Jul-13 20:30N 40°38' W 074°04'3 6.5
2018-Jul-13 20:00N 40°39' W 074°08'0 0.1
2018-Jul-13 18:55N 40°38' W 074°08'0 0.0
2018-Jul-13 17:58N 40°38' W 074°08'0 0.0
2018-Jul-13 17:26N 40°38' W 074°08'0 0.0
2018-Jul-13 16:57N 40°38' W 074°08'0 0.0
2018-Jul-13 16:30N 40°38' W 074°08'0 0.0
2018-Jul-13 15:42N 40°38' W 074°08'  

Dump ship's entire track history